Time;durP1;ratioP1;P1;durP2;ratioP2;P2;SDS_P1;SDS_P2;PMS_P1;PMS_P2;Temp;Humidity;BMP_temperature;BMP_pressure;BME280_temperature;BME280_humidity;BME280_pressure;Samples;Min_cycle;Max_cycle;Signal;HPM_P1;HPM_P2
2022/04/20 00:00:32;;;;;;;1.75;1.65;;;19.20;32.30;;;;;;5171079;27;46866;-12
2022/04/20 00:02:59;;;;;;;2.53;1.77;;;19.10;32.30;;;;;;5170667;27;48217;-13
2022/04/20 00:05:26;;;;;;;1.58;1.48;;;19.10;32.30;;;;;;5170798;27;47023;-12
2022/04/20 00:07:52;;;;;;;1.95;1.67;;;19.10;32.30;;;;;;5170816;27;46898;-22
2022/04/20 00:10:19;;;;;;;2.03;1.77;;;19.10;32.40;;;;;;5171258;27;46962;-12
2022/04/20 00:12:46;;;;;;;1.70;1.60;;;19.10;32.30;;;;;;5170317;27;49043;-23
2022/04/20 00:15:14;;;;;;;1.67;1.58;;;19.00;32.30;;;;;;5170457;27;46978;-13
2022/04/20 00:17:41;;;;;;;1.88;1.55;;;19.00;32.30;;;;;;5170295;27;46886;-22
2022/04/20 00:20:09;;;;;;;1.67;1.58;;;19.00;32.40;;;;;;5170578;27;47221;-22
2022/04/20 00:22:36;;;;;;;2.05;1.60;;;19.00;32.40;;;;;;5170109;27;47885;-13
2022/04/20 00:25:02;;;;;;;2.33;1.67;;;19.00;32.40;;;;;;5170091;27;47156;-22
2022/04/20 00:27:33;;;;;;;1.70;1.60;;;19.00;32.40;;;;;;5170275;27;46878;-22
2022/04/20 00:29:59;;;;;;;1.60;1.50;;;18.90;32.30;;;;;;5170640;27;46816;-13
2022/04/20 00:32:29;;;;;;;1.60;1.50;;;18.90;32.30;;;;;;5169889;27;47072;-22
2022/04/20 00:34:56;;;;;;;1.77;1.50;;;18.90;32.40;;;;;;5170156;27;47088;-22
2022/04/20 00:37:22;;;;;;;1.60;1.50;;;18.90;32.40;;;;;;5169979;27;46877;-12
2022/04/20 00:39:49;;;;;;;2.03;1.50;;;18.80;32.40;;;;;;5169531;27;46963;-12
2022/04/20 00:42:16;;;;;;;1.80;1.50;;;18.80;32.40;;;;;;5169766;27;49077;-22
2022/04/20 00:44:43;;;;;;;1.75;1.60;;;18.80;32.40;;;;;;5170170;27;47458;-22
2022/04/20 00:47:10;;;;;;;1.60;1.50;;;18.80;32.40;;;;;;5169637;27;46925;-23
2022/04/20 00:49:38;;;;;;;2.47;1.58;;;18.80;32.40;;;;;;5170324;27;47169;-12
2022/04/20 00:52:06;;;;;;;1.63;1.33;;;18.80;33.10;;;;;;5170132;27;47837;-12
2022/04/20 00:54:33;;;;;;;1.60;1.50;;;18.80;32.50;;;;;;5170143;27;46901;-22
2022/04/20 00:57:00;;;;;;;1.80;1.70;;;18.80;32.50;;;;;;5169643;27;46901;-22
2022/04/20 00:59:27;;;;;;;2.60;1.40;;;18.70;32.50;;;;;;5169901;27;47174;-22
2022/04/20 01:01:54;;;;;;;1.63;1.48;;;18.70;32.50;;;;;;5169485;27;47899;-22
2022/04/20 01:04:21;;;;;;;1.58;1.48;;;18.70;32.50;;;;;;5169732;27;47247;-13
2022/04/20 01:06:49;;;;;;;1.50;1.40;;;18.70;32.40;;;;;;5169390;27;46876;-22
2022/04/20 01:09:16;;;;;;;1.50;1.40;;;18.70;32.40;;;;;;5170000;27;46920;-22
2022/04/20 01:11:42;;;;;;;1.50;1.40;;;18.70;32.50;;;;;;5169180;27;48063;-23
2022/04/20 01:14:09;;;;;;;1.42;1.33;;;18.70;32.40;;;;;;5169743;27;46905;-12
2022/04/20 01:16:36;;;;;;;1.65;1.42;;;18.70;32.40;;;;;;5169337;27;46869;-22
2022/04/20 01:19:02;;;;;;;3.55;1.38;;;18.60;32.50;;;;;;5169765;27;46907;-13
2022/04/20 01:21:31;;;;;;;1.52;1.33;;;18.60;32.50;;;;;;5169184;27;49248;-12
2022/04/20 01:23:57;;;;;;;1.40;1.30;;;18.60;32.50;;;;;;5169648;27;47198;-12
2022/04/20 01:26:24;;;;;;;1.40;1.30;;;18.60;32.50;;;;;;5169415;27;46885;-22
2022/04/20 01:28:51;;;;;;;1.20;1.20;;;18.60;32.60;;;;;;5169334;27;46921;-12
2022/04/20 01:31:18;;;;;;;1.48;1.38;;;18.60;32.50;;;;;;5169158;27;48684;-12
2022/04/20 01:33:45;;;;;;;1.85;1.30;;;18.60;32.50;;;;;;5168897;27;46801;-13
2022/04/20 01:36:12;;;;;;;1.33;1.30;;;18.50;32.50;;;;;;5168947;27;47013;-23
2022/04/20 01:38:40;;;;;;;1.50;1.40;;;18.50;32.60;;;;;;5169484;27;47043;-22
2022/04/20 01:41:07;;;;;;;1.38;1.27;;;18.50;32.60;;;;;;5168345;27;49092;-12
2022/04/20 01:43:33;;;;;;;1.27;1.17;;;18.50;32.60;;;;;;5169227;27;46921;-12
2022/04/20 01:46:00;;;;;;;1.60;1.50;;;18.50;32.60;;;;;;5168967;27;46901;-22
2022/04/20 01:48:27;;;;;;;1.83;1.25;;;18.50;32.60;;;;;;5169222;27;47065;-22
2022/04/20 01:53:39;;;;;;;1.30;1.20;;;18.40;32.60;;;;;;5166016;27;46828;-12
2022/04/20 01:56:06;;;;;;;1.38;1.27;;;18.40;32.60;;;;;;5168606;27;46764;-13
2022/04/20 01:58:34;;;;;;;1.40;1.30;;;18.40;32.60;;;;;;5168701;27;47042;-12
2022/04/20 02:01:01;;;;;;;1.17;1.17;;;18.40;32.60;;;;;;5168459;27;47105;-22
2022/04/20 02:03:26;;;;;;;2.50;1.40;;;18.40;32.70;;;;;;5168827;27;47416;-12
2022/04/20 02:05:53;;;;;;;1.20;1.20;;;18.40;32.70;;;;;;5168623;27;47146;-12
2022/04/20 02:08:20;;;;;;;1.10;1.10;;;18.40;32.70;;;;;;5168834;27;46932;-22
2022/04/20 02:10:48;;;;;;;1.58;1.20;;;18.40;33.30;;;;;;5168532;27;47951;-12
2022/04/20 02:13:15;;;;;;;1.15;1.05;;;18.30;32.60;;;;;;5168743;27;47248;-22
2022/04/20 02:15:41;;;;;;;1.10;1.10;;;18.30;32.70;;;;;;5168588;27;46897;-22
2022/04/20 02:18:08;;;;;;;1.15;1.05;;;18.30;32.60;;;;;;5168997;27;46846;-13
2022/04/20 02:20:35;;;;;;;1.50;1.40;;;18.30;32.70;;;;;;5168226;27;48234;-13
2022/04/20 02:23:01;;;;;;;1.50;1.15;;;18.30;32.60;;;;;;5168219;27;46813;-22
2022/04/20 02:25:29;;;;;;;1.00;0.90;;;18.30;32.70;;;;;;5168694;27;46902;-22
2022/04/20 02:27:57;;;;;;;1.15;1.05;;;18.30;32.70;;;;;;5168432;27;46913;-22
2022/04/20 02:30:24;;;;;;;1.10;1.10;;;18.30;32.80;;;;;;5168167;27;47888;-22
2022/04/20 02:32:51;;;;;;;1.48;1.00;;;18.30;32.80;;;;;;5168459;27;46988;-22
2022/04/20 02:35:18;;;;;;;1.48;1.35;;;18.30;32.80;;;;;;5168435;27;46828;-22
2022/04/20 02:37:44;;;;;;;1.30;1.20;;;18.20;32.70;;;;;;5168657;27;47259;-22
2022/04/20 02:40:12;;;;;;;1.27;1.17;;;18.20;32.80;;;;;;5168240;27;47911;-12
2022/04/20 02:42:39;;;;;;;1.15;1.02;;;18.20;32.70;;;;;;5168118;27;46867;-12
2022/04/20 02:45:07;;;;;;;2.30;1.08;;;18.20;32.70;;;;;;5168380;27;46856;-12
2022/04/20 02:47:34;;;;;;;1.42;1.00;;;18.20;32.80;;;;;;5168002;27;46769;-12
2022/04/20 02:50:01;;;;;;;1.58;1.20;;;18.20;32.80;;;;;;5167889;27;48133;-22
2022/04/20 02:52:27;;;;;;;0.90;0.90;;;18.20;32.90;;;;;;5168195;27;47077;-23
2022/04/20 02:54:54;;;;;;;1.55;1.00;;;18.20;32.90;;;;;;5168152;27;46964;-23
2022/04/20 02:57:21;;;;;;;1.63;1.30;;;18.20;32.90;;;;;;5167916;27;46808;-22
2022/04/20 02:59:47;;;;;;;1.02;1.02;;;18.10;32.80;;;;;;5167965;27;48343;-22
2022/04/20 03:02:16;;;;;;;1.20;1.10;;;18.10;32.90;;;;;;5169238;27;46796;-12
2022/04/20 03:04:43;;;;;;;1.13;1.10;;;18.10;32.80;;;;;;5171650;27;46850;-13
2022/04/20 03:07:09;;;;;;;1.00;1.00;;;18.10;32.90;;;;;;5171407;27;46803;-22
2022/04/20 03:09:36;;;;;;;1.15;1.05;;;18.10;32.90;;;;;;5170747;27;47056;-12
2022/04/20 03:12:03;;;;;;;1.25;1.15;;;18.10;32.90;;;;;;5150081;27;47147;-13
2022/04/20 03:14:30;;;;;;;1.25;1.15;;;18.10;32.80;;;;;;5150584;27;46889;-22
2022/04/20 03:16:57;;;;;;;1.00;1.00;;;18.10;32.90;;;;;;5150642;27;47122;-22
2022/04/20 03:19:25;;;;;;;1.15;1.10;;;18.10;32.90;;;;;;5150178;27;49078;-13
2022/04/20 03:21:51;;;;;;;1.00;0.95;;;18.10;32.90;;;;;;5150154;27;46985;-12
2022/04/20 03:24:18;;;;;;;0.82;0.82;;;18.00;32.90;;;;;;5150179;27;46787;-12
2022/04/20 03:26:45;;;;;;;1.05;1.00;;;18.00;32.80;;;;;;5150527;27;47279;-12
2022/04/20 03:29:12;;;;;;;0.95;0.95;;;18.00;32.90;;;;;;5150180;27;48095;-12
2022/04/20 03:31:39;;;;;;;1.17;1.08;;;18.00;32.90;;;;;;5149751;27;46942;-14
2022/04/20 03:34:05;;;;;;;1.00;1.00;;;18.00;33.00;;;;;;5150235;27;46889;-12
2022/04/20 03:36:34;;;;;;;0.80;0.80;;;18.00;33.00;;;;;;5150032;27;47307;-13
2022/04/20 03:39:01;;;;;;;1.10;1.00;;;18.00;32.90;;;;;;5150004;27;48821;-22
2022/04/20 03:41:28;;;;;;;1.65;1.10;;;17.90;33.00;;;;;;5149358;27;47154;-12
2022/04/20 03:43:54;;;;;;;2.08;1.13;;;17.90;32.90;;;;;;5149928;27;47081;-12
2022/04/20 03:46:22;;;;;;;1.02;1.02;;;17.90;32.90;;;;;;5150195;27;46903;-12
2022/04/20 03:48:48;;;;;;;1.02;0.88;;;17.90;32.90;;;;;;5149971;27;48643;-22
2022/04/20 03:51:15;;;;;;;1.00;1.00;;;17.90;33.00;;;;;;5149873;27;46813;-13
2022/04/20 03:53:45;;;;;;;1.40;1.00;;;17.90;33.00;;;;;;5150092;27;46888;-13
2022/04/20 03:56:11;;;;;;;1.00;1.00;;;17.80;33.00;;;;;;5150145;27;46906;-12
2022/04/20 03:58:38;;;;;;;0.90;0.90;;;17.80;33.10;;;;;;5149861;27;46896;-22
2022/04/20 04:01:05;;;;;;;1.17;1.10;;;17.80;33.10;;;;;;5149927;27;47109;-22
2022/04/20 04:03:31;;;;;;;1.10;1.10;;;17.80;33.10;;;;;;5149547;27;46831;-13
2022/04/20 04:05:58;;;;;;;0.98;0.90;;;17.80;33.10;;;;;;5149544;27;46980;-12
2022/04/20 04:08:25;;;;;;;0.80;0.80;;;17.80;33.10;;;;;;5149372;27;47065;-13
2022/04/20 04:10:53;;;;;;;0.80;0.80;;;17.80;33.20;;;;;;5149655;27;47507;-12
2022/04/20 04:13:21;;;;;;;1.85;1.10;;;17.80;33.20;;;;;;5149988;27;47045;-22
2022/04/20 04:15:47;;;;;;;2.15;1.10;;;17.70;33.10;;;;;;5149747;27;46906;-12
2022/04/20 04:18:14;;;;;;;2.05;0.90;;;17.70;33.20;;;;;;5149487;27;47061;-13
2022/04/20 04:20:41;;;;;;;0.90;0.90;;;17.70;33.10;;;;;;5149008;27;46905;-12
2022/04/20 04:23:07;;;;;;;0.88;0.88;;;17.60;33.20;;;;;;5149776;27;46994;-13
2022/04/20 04:25:34;;;;;;;1.38;1.20;;;17.60;33.20;;;;;;5149633;27;46812;-12
2022/04/20 04:28:02;;;;;;;0.93;0.93;;;17.60;33.20;;;;;;5149347;27;49014;-22
2022/04/20 04:30:29;;;;;;;0.90;0.90;;;17.60;33.40;;;;;;5149528;27;47046;-22
2022/04/20 04:32:56;;;;;;;1.38;1.10;;;17.60;33.40;;;;;;5149101;27;47013;-12
2022/04/20 04:35:22;;;;;;;1.00;1.00;;;17.60;33.30;;;;;;5149512;27;46932;-22
2022/04/20 04:37:49;;;;;;;1.00;1.00;;;17.60;33.40;;;;;;5149206;27;48872;-22
2022/04/20 04:40:18;;;;;;;0.93;0.93;;;17.60;33.40;;;;;;5149127;27;46871;-13
2022/04/20 04:42:45;;;;;;;1.90;1.33;;;17.60;33.40;;;;;;5169339;27;46963;-12
2022/04/20 04:50:47;;;;;;;1.20;1.00;;;17.50;33.40;;;;;;5147124;27;47049;-12
2022/04/20 04:53:14;;;;;;;1.95;0.90;;;17.50;33.40;;;;;;5169867;27;46369;-22
2022/04/20 04:55:40;;;;;;;1.38;1.15;;;17.50;33.50;;;;;;5170356;27;47292;-22
2022/04/20 04:58:07;;;;;;;0.80;0.80;;;17.40;33.50;;;;;;5169587;27;48109;-12
2022/04/20 05:00:35;;;;;;;0.80;0.80;;;17.50;33.50;;;;;;5169695;27;46778;-22
2022/04/20 05:03:02;;;;;;;0.88;0.88;;;17.40;33.60;;;;;;5169979;27;46806;-12
2022/04/20 05:05:29;;;;;;;1.15;1.00;;;17.40;33.60;;;;;;5170126;27;46912;-13
2022/04/20 05:07:56;;;;;;;1.02;1.00;;;17.40;33.60;;;;;;5169391;27;47951;-13
2022/04/20 05:10:22;;;;;;;0.82;0.82;;;17.40;33.60;;;;;;5169756;27;46861;-13
2022/04/20 05:12:49;;;;;;;1.85;0.90;;;17.40;33.60;;;;;;5169603;27;46887;-13
2022/04/20 05:15:16;;;;;;;1.20;1.10;;;17.30;33.60;;;;;;5170029;27;46984;-21
2022/04/20 05:17:44;;;;;;;1.30;1.00;;;17.30;33.70;;;;;;5169625;27;49097;-22
2022/04/20 05:20:12;;;;;;;0.82;0.82;;;17.30;33.70;;;;;;5169408;27;46977;-22
2022/04/20 05:22:38;;;;;;;1.27;1.10;;;17.30;33.80;;;;;;5169277;27;46856;-22
2022/04/20 05:25:06;;;;;;;1.20;1.10;;;17.30;33.70;;;;;;5168533;27;46862;-22
2022/04/20 05:27:33;;;;;;;1.25;1.15;;;17.30;33.70;;;;;;5169334;27;48126;-12
2022/04/20 05:29:59;;;;;;;1.20;1.20;;;17.30;33.80;;;;;;5169163;27;47438;-22
2022/04/20 05:32:26;;;;;;;0.80;0.80;;;17.30;33.80;;;;;;5168813;27;47013;-12
2022/04/20 05:34:54;;;;;;;1.25;1.00;;;17.30;33.80;;;;;;5168844;27;46927;-22
2022/04/20 05:42:50;;;;;;;1.10;1.10;;;17.20;33.90;;;;;;5166313;27;46882;-22
2022/04/20 05:45:17;;;;;;;1.15;1.05;;;17.20;33.90;;;;;;5169327;27;47087;-22
2022/04/20 05:47:44;;;;;;;1.10;1.10;;;17.20;34.00;;;;;;5169069;27;48156;-12
2022/04/20 05:50:12;;;;;;;1.52;1.00;;;17.20;33.90;;;;;;5169152;27;46891;-22
2022/04/20 05:52:38;;;;;;;1.58;1.45;;;17.20;34.00;;;;;;5169055;27;46935;-23
2022/04/20 05:55:07;;;;;;;1.00;1.00;;;17.20;34.00;;;;;;5169136;27;47224;-23
2022/04/20 05:57:33;;;;;;;1.10;1.00;;;17.20;34.00;;;;;;5168661;27;48804;-12
2022/04/20 06:00:00;;;;;;;1.33;1.20;;;17.20;34.00;;;;;;5168511;27;47401;-12
2022/04/20 06:02:27;;;;;;;2.72;1.10;;;17.20;34.00;;;;;;5168890;27;46990;-22
2022/04/20 06:04:54;;;;;;;1.48;1.20;;;17.20;34.10;;;;;;5169068;27;47251;-12
2022/04/20 06:07:22;;;;;;;3.42;1.30;;;17.20;34.00;;;;;;5168157;27;46892;-13
2022/04/20 06:09:48;;;;;;;1.45;1.35;;;17.20;34.10;;;;;;5168719;27;46872;-22
2022/04/20 06:12:15;;;;;;;2.08;1.20;;;17.20;34.10;;;;;;5168547;27;46905;-13
2022/04/20 06:14:42;;;;;;;1.73;1.25;;;17.20;34.10;;;;;;5168781;27;46955;-12
2022/04/20 06:17:08;;;;;;;2.78;1.40;;;17.10;34.00;;;;;;5168406;27;48761;-12
2022/04/20 06:19:35;;;;;;;2.40;1.30;;;17.20;34.10;;;;;;5168294;27;46894;-22
2022/04/20 06:22:02;;;;;;;1.50;1.40;;;17.10;34.10;;;;;;5168283;27;46738;-12
2022/04/20 06:24:30;;;;;;;1.85;1.52;;;17.10;34.10;;;;;;5168667;27;47281;-22
2022/04/20 06:26:57;;;;;;;1.30;1.30;;;17.10;34.20;;;;;;5168384;27;48437;-13
2022/04/20 06:29:24;;;;;;;1.98;1.50;;;17.10;34.20;;;;;;5168505;27;47459;-13
2022/04/20 06:31:51;;;;;;;2.05;1.38;;;17.10;34.20;;;;;;5168210;27;46901;-22
2022/04/20 06:34:18;;;;;;;2.15;1.33;;;17.10;34.30;;;;;;5167686;27;47242;-22
2022/04/20 06:36:45;;;;;;;2.08;1.10;;;17.10;34.30;;;;;;5169234;27;48121;-12
2022/04/20 06:39:11;;;;;;;1.83;1.35;;;17.20;34.20;;;;;;5171856;27;46938;-13
2022/04/20 06:41:39;;;;;;;1.50;1.25;;;17.20;34.20;;;;;;5171337;27;46910;-22
2022/04/20 06:44:06;;;;;;;1.40;1.30;;;17.20;34.30;;;;;;5172177;27;47155;-22
2022/04/20 06:46:33;;;;;;;2.22;1.45;;;17.20;34.30;;;;;;5171871;27;47646;-23
2022/04/20 06:49:00;;;;;;;1.38;1.27;;;17.10;34.30;;;;;;5171924;27;47762;-14
2022/04/20 06:58:31;;;;;;;1.58;1.40;;;17.10;34.30;;;;;;5171105;27;46857;-12
2022/04/20 06:59:43;;;;;;;1.65;1.45;;;17.20;34.40;;;;;;5165816;27;47061;-12
2022/04/20 07:02:11;;;;;;;1.67;1.55;;;17.20;34.40;;;;;;5169947;27;46819;-22
2022/04/20 07:04:37;;;;;;;3.13;1.55;;;17.20;34.40;;;;;;5170907;27;47020;-22
2022/04/20 07:07:04;;;;;;;1.70;1.50;;;17.10;34.50;;;;;;5170350;27;47943;-22
2022/04/20 07:09:31;;;;;;;2.50;1.50;;;17.20;34.50;;;;;;5171378;27;46858;-22
2022/04/20 07:11:59;;;;;;;2.20;1.55;;;17.20;34.50;;;;;;5171036;27;46944;-22
2022/04/20 07:14:26;;;;;;;1.63;1.52;;;17.20;34.50;;;;;;5171956;27;46887;-12
2022/04/20 07:16:53;;;;;;;2.15;1.80;;;17.20;34.40;;;;;;5171388;27;49048;-12
2022/04/20 07:19:19;;;;;;;2.88;1.65;;;17.20;34.40;;;;;;5171711;27;46919;-12
2022/04/20 07:21:46;;;;;;;2.42;1.60;;;17.20;34.40;;;;;;5171052;27;46870;-23
2022/04/20 07:24:13;;;;;;;1.45;1.35;;;17.20;34.50;;;;;;5171561;27;47250;-13
2022/04/20 07:26:39;;;;;;;2.08;1.85;;;17.30;34.40;;;;;;5171065;27;47955;-12
2022/04/20 07:29:07;;;;;;;3.00;1.83;;;17.30;34.40;;;;;;5171516;27;47407;-22
2022/04/20 07:31:34;;;;;;;1.77;1.55;;;17.30;34.40;;;;;;5163659;27;47047;-22
2022/04/20 07:34:01;;;;;;;1.85;1.70;;;17.30;34.40;;;;;;5166662;27;46937;-12
2022/04/20 07:36:28;;;;;;;1.80;1.60;;;17.40;34.50;;;;;;5169328;27;48402;-12
2022/04/20 07:38:55;;;;;;;2.80;1.83;;;17.40;34.40;;;;;;5169690;27;46992;-22
2022/04/20 07:41:21;;;;;;;2.13;1.60;;;17.40;34.40;;;;;;5169965;27;47027;-13
2022/04/20 07:43:49;;;;;;;2.08;1.73;;;17.40;34.40;;;;;;5169870;27;46881;-21
2022/04/20 07:46:19;;;;;;;2.28;1.85;;;17.40;34.40;;;;;;5163594;27;47879;-22
2022/04/20 07:48:46;;;;;;;2.30;1.65;;;17.40;34.40;;;;;;5169001;27;47019;-13
2022/04/20 07:51:12;;;;;;;1.63;1.52;;;17.40;34.40;;;;;;5169702;27;46876;-12
2022/04/20 07:53:39;;;;;;;2.20;1.70;;;17.40;34.40;;;;;;5169518;27;47298;-12
2022/04/20 07:56:06;;;;;;;2.95;2.00;;;17.50;34.50;;;;;;5169757;27;48125;-12
2022/04/20 07:58:33;;;;;;;3.40;1.88;;;17.50;34.40;;;;;;5169846;27;46965;-21
2022/04/20 08:00:59;;;;;;;2.95;1.63;;;17.50;34.40;;;;;;5169431;27;47213;-12
2022/04/20 08:03:28;;;;;;;1.80;1.70;;;17.50;34.40;;;;;;5170054;27;47014;-12
2022/04/20 08:05:55;;;;;;;2.40;1.63;;;17.50;34.40;;;;;;5169469;27;46877;-17
2022/04/20 08:08:22;;;;;;;1.95;1.85;;;17.60;34.60;;;;;;5169608;27;46969;-21
2022/04/20 08:10:49;;;;;;;1.90;1.80;;;17.60;34.60;;;;;;5170210;27;46989;-23
2022/04/20 08:16:00;;;;;;;1.60;1.50;;;17.70;34.40;;;;;;5168315;27;46994;-12
2022/04/20 08:18:28;;;;;;;2.45;1.90;;;17.70;34.40;;;;;;5170596;27;46737;-13
2022/04/20 08:20:55;;;;;;;3.42;1.95;;;17.70;34.40;;;;;;5170275;27;47008;-22
2022/04/20 08:23:22;;;;;;;2.17;1.55;;;17.70;34.40;;;;;;5170564;27;46936;-21
2022/04/20 08:25:48;;;;;;;2.75;1.80;;;17.70;34.40;;;;;;5170053;27;48989;-12
2022/04/20 08:28:15;;;;;;;2.25;1.60;;;17.70;34.50;;;;;;5170019;27;46989;-13
2022/04/20 08:30:42;;;;;;;1.95;1.75;;;17.80;34.50;;;;;;5170449;27;46888;-22
2022/04/20 08:33:08;;;;;;;3.88;1.90;;;17.80;34.50;;;;;;5170560;27;46920;-13
2022/04/20 08:35:37;;;;;;;2.53;1.90;;;17.80;34.30;;;;;;5170360;27;47112;-12
2022/04/20 08:38:04;;;;;;;1.50;1.40;;;17.90;34.40;;;;;;5170023;27;47768;-13
2022/04/20 08:40:30;;;;;;;1.88;1.77;;;17.90;34.30;;;;;;5169535;27;46841;-21
2022/04/20 08:42:59;;;;;;;3.60;1.48;;;17.90;34.30;;;;;;5170325;27;46978;-22
2022/04/20 08:45:26;;;;;;;1.70;1.42;;;17.90;34.20;;;;;;5169999;27;47740;-12
2022/04/20 08:47:52;;;;;;;1.83;1.60;;;18.00;34.20;;;;;;5169841;27;47415;-12
2022/04/20 08:50:19;;;;;;;1.52;1.40;;;18.00;34.20;;;;;;5167324;27;46886;-12
2022/04/20 08:52:50;;;;;;;1.60;1.42;;;18.00;34.10;;;;;;5163739;27;46912;-13
2022/04/20 08:55:17;;;;;;;1.60;1.50;;;18.00;34.10;;;;;;5166212;27;47161;-22
2022/04/20 08:57:45;;;;;;;1.60;1.50;;;18.10;34.20;;;;;;5168179;27;46992;-22
2022/04/20 09:00:13;;;;;;;2.00;1.80;;;18.10;34.10;;;;;;5167243;27;46971;-22
2022/04/20 09:02:39;;;;;;;3.33;1.65;;;18.10;34.10;;;;;;5168445;27;47110;-12
2022/04/20 09:05:07;;;;;;;1.77;1.60;;;18.10;34.00;;;;;;5168358;27;47059;-13
2022/04/20 09:07:34;;;;;;;2.75;1.63;;;18.10;34.00;;;;;;5167900;27;46956;-12
2022/04/20 09:10:02;;;;;;;2.10;1.63;;;18.10;34.00;;;;;;5168382;27;46901;-13
2022/04/20 09:12:29;;;;;;;4.63;1.80;;;18.20;34.00;;;;;;5167532;27;47258;-22
2022/04/20 09:14:56;;;;;;;1.95;1.70;;;18.20;34.00;;;;;;5168447;27;48733;-22
2022/04/20 09:17:24;;;;;;;2.13;1.48;;;18.20;34.10;;;;;;5167336;27;47135;-13
2022/04/20 09:19:52;;;;;;;1.80;1.55;;;18.30;34.00;;;;;;5167810;27;46965;-23
2022/04/20 09:22:20;;;;;;;2.55;1.60;;;18.30;34.70;;;;;;5167856;27;47138;-22
2022/04/20 09:25:04;;;;;;;1.35;1.25;;;18.30;34.00;;;;;;5167537;27;48104;-22
2022/04/20 09:27:31;;;;;;;1.80;1.52;;;18.30;34.00;;;;;;5167708;27;47627;-23
2022/04/20 09:29:58;;;;;;;1.85;1.67;;;18.40;34.00;;;;;;5167396;27;46933;-13
2022/04/20 09:32:35;;;;;;;1.98;1.70;;;18.40;34.20;;;;;;5168973;27;46819;-22
2022/04/20 09:35:03;;;;;;;2.75;1.60;;;18.40;34.10;;;;;;5168960;27;47864;-13
2022/04/20 09:37:30;;;;;;;2.03;1.60;;;18.40;34.30;;;;;;5168688;27;46867;-22
2022/04/20 09:39:57;;;;;;;1.45;1.35;;;18.40;34.40;;;;;;5168923;27;47009;-13
2022/04/20 09:42:26;;;;;;;2.13;1.80;;;18.50;34.40;;;;;;5168700;27;47027;-23
2022/04/20 09:44:54;;;;;;;1.60;1.50;;;18.50;35.30;;;;;;5168566;27;47765;-22
2022/04/20 09:50:07;;;;;;;1.45;1.35;;;18.60;34.30;;;;;;5149201;27;46929;-13
2022/04/20 09:52:37;;;;;;;1.85;1.58;;;18.60;34.10;;;;;;5169112;27;46882;-12
2022/04/20 09:55:05;;;;;;;1.48;1.38;;;18.60;33.80;;;;;;5168587;27;49187;-14
2022/04/20 09:57:34;;;;;;;1.92;1.50;;;18.70;33.90;;;;;;5168387;27;46958;-22
2022/04/20 10:00:01;;;;;;;1.75;1.40;;;18.70;33.90;;;;;;5168942;27;46903;-22
2022/04/20 10:02:29;;;;;;;1.20;1.20;;;18.70;33.80;;;;;;5168823;27;46780;-12
2022/04/20 10:04:56;;;;;;;1.75;1.65;;;18.80;34.00;;;;;;5168709;27;47920;-14
2022/04/20 10:07:23;;;;;;;2.08;1.88;;;18.80;34.00;;;;;;5168179;27;46985;-22
2022/04/20 10:09:50;;;;;;;1.73;1.63;;;18.80;33.90;;;;;;5168661;27;46864;-13
2022/04/20 10:12:18;;;;;;;1.50;1.40;;;18.90;34.00;;;;;;5168891;27;46885;-22
2022/04/20 10:17:34;;;;;;;2.55;1.60;;;19.00;33.90;;;;;;5168446;27;46860;-23
2022/04/20 10:20:03;;;;;;;2.50;1.67;;;19.00;33.90;;;;;;5161127;27;46872;-16
2022/04/20 10:22:29;;;;;;;2.40;1.58;;;19.00;33.90;;;;;;5147476;27;47098;-13
2022/04/20 10:24:57;;;;;;;2.40;1.55;;;19.10;33.70;;;;;;5146443;27;47164;-13
2022/04/20 10:27:30;;;;;;;2.30;1.58;;;19.10;33.90;;;;;;5146042;27;47090;-22
2022/04/20 10:29:59;;;;;;;4.93;1.60;;;19.20;33.90;;;;;;5147380;27;46965;-22
2022/04/20 10:32:26;;;;;;;3.15;1.60;;;19.20;33.90;;;;;;5147145;27;46848;-13
2022/04/20 10:34:53;;;;;;;1.60;1.50;;;19.30;33.80;;;;;;5147099;27;47004;-13
2022/04/20 10:37:25;;;;;;;2.63;1.60;;;19.40;33.80;;;;;;5153562;27;47058;-22
2022/04/20 10:39:53;;;;;;;3.42;1.55;;;19.40;33.90;;;;;;5168324;27;46843;-22
2022/04/20 10:42:21;;;;;;;7.25;2.00;;;19.40;33.80;;;;;;5167450;27;46986;-13
2022/04/20 10:45:00;;;;;;;4.22;1.50;;;19.50;33.70;;;;;;5168045;27;48137;-22
2022/04/20 10:47:27;;;;;;;3.35;1.80;;;19.60;33.80;;;;;;5168261;27;46969;-22
2022/04/20 10:49:54;;;;;;;1.52;1.42;;;19.60;33.80;;;;;;5168242;27;46987;-22
2022/04/20 10:52:25;;;;;;;8.48;1.77;;;19.70;33.70;;;;;;5168036;27;46774;-23
2022/04/20 10:54:51;;;;;;;1.63;1.52;;;19.70;34.10;;;;;;5166688;27;49274;-22
2022/04/20 10:57:18;;;;;;;1.52;1.42;;;19.60;33.30;;;;;;5167262;27;47119;-13
2022/04/20 10:59:46;;;;;;;4.10;1.33;;;19.60;32.30;;;;;;5167970;27;46968;-13
2022/04/20 11:02:14;;;;;;;2.20;1.40;;;19.60;32.70;;;;;;5165306;27;46968;-22
2022/04/20 11:04:43;;;;;;;4.50;1.70;;;19.60;33.10;;;;;;5165354;27;48235;-23
2022/04/20 11:07:34;;;;;;;1.45;1.35;;;19.60;34.10;;;;;;5167735;27;47043;-20
2022/04/20 11:10:06;;;;;;;3.67;1.60;;;19.60;34.00;;;;;;5167393;27;47344;-13
2022/04/20 11:18:40;;;;;;;9.25;2.03;;;19.90;34.50;;;;;;5164614;27;46933;-23
2022/04/20 11:21:15;;;;;;;2.08;1.60;;;20.10;34.00;;;;;;5167262;27;46888;-22
2022/04/20 11:24:05;;;;;;;2.22;1.77;;;20.10;32.10;;;;;;5168063;27;47134;-13
2022/04/20 11:26:34;;;;;;;3.15;2.30;;;20.20;32.70;;;;;;5170998;27;48158;-24
2022/04/20 11:29:03;;;;;;;2.80;2.08;;;20.30;33.00;;;;;;5170843;27;46866;-24
2022/04/20 11:31:37;;;;;;;2.08;1.50;;;20.40;32.60;;;;;;5165829;27;47217;-13
2022/04/20 11:34:05;;;;;;;2.00;1.63;;;20.40;32.10;;;;;;5157528;27;46960;-22
2022/04/20 11:36:32;;;;;;;4.75;1.85;;;20.50;32.70;;;;;;5168857;27;48219;-13
2022/04/20 11:39:00;;;;;;;2.30;1.42;;;20.70;32.70;;;;;;5169926;27;46951;-24
2022/04/20 11:41:27;;;;;;;3.03;1.60;;;20.70;31.90;;;;;;5170624;27;46940;-23
2022/04/20 11:43:54;;;;;;;4.30;1.48;;;20.80;31.10;;;;;;5171046;27;47562;-13
2022/04/20 11:46:21;;;;;;;3.45;1.40;;;20.90;31.10;;;;;;5170933;27;47960;-13
2022/04/20 11:48:51;;;;;;;4.32;1.40;;;20.90;30.80;;;;;;5170670;27;46913;-14
2022/04/20 11:51:25;;;;;;;1.67;1.27;;;21.00;29.90;;;;;;5170743;27;46939;-13
2022/04/20 11:53:52;;;;;;;2.65;1.30;;;21.10;30.20;;;;;;5170978;27;46832;-13
2022/04/20 11:56:32;;;;;;;2.35;1.60;;;21.10;30.10;;;;;;5169924;27;48009;-23
2022/04/20 11:58:59;;;;;;;8.35;1.63;;;21.20;30.10;;;;;;5170607;27;46781;-22
2022/04/20 12:01:26;;;;;;;3.00;1.30;;;21.30;30.00;;;;;;5171170;27;46862;-23
2022/04/20 12:03:54;;;;;;;2.05;1.50;;;21.30;30.00;;;;;;5169626;27;47311;-13
2022/04/20 12:06:24;;;;;;;2.10;1.27;;;21.40;30.60;;;;;;5170215;27;48532;-22
2022/04/20 12:08:53;;;;;;;5.18;1.33;;;21.40;30.00;;;;;;5170560;27;46974;-22
2022/04/20 12:11:20;;;;;;;1.55;1.30;;;21.50;30.00;;;;;;5170088;27;46884;-23
2022/04/20 12:13:47;;;;;;;1.38;1.17;;;21.60;30.00;;;;;;5170627;27;46867;-23
2022/04/20 12:16:14;;;;;;;1.00;1.00;;;21.60;29.50;;;;;;5168987;27;48284;-25
2022/04/20 12:18:42;;;;;;;1.58;1.38;;;21.70;30.10;;;;;;5166621;27;47408;-13
2022/04/20 12:21:40;;;;;;;2.05;1.35;;;21.80;30.00;;;;;;5168185;27;46959;-13
2022/04/20 12:24:08;;;;;;;7.57;1.45;;;21.80;29.50;;;;;;5169972;27;46901;-26
2022/04/20 12:26:35;;;;;;;2.25;1.23;;;21.90;29.30;;;;;;5170073;27;47260;-24
2022/04/20 12:29:02;;;;;;;2.10;1.25;;;22.00;29.60;;;;;;5169966;27;46828;-23
2022/04/20 12:31:30;;;;;;;1.60;1.50;;;22.10;29.70;;;;;;5168443;27;46893;-14
2022/04/20 12:34:01;;;;;;;4.32;1.40;;;22.10;29.20;;;;;;5169157;27;47302;-25
2022/04/20 12:36:28;;;;;;;5.75;1.70;;;22.20;29.30;;;;;;5169130;27;49048;-14
2022/04/20 12:38:56;;;;;;;2.92;1.80;;;22.30;28.90;;;;;;5169512;27;46871;-15
2022/04/20 12:41:44;;;;;;;2.67;1.80;;;22.30;28.80;;;;;;5169669;27;46985;-23
2022/04/20 12:44:51;;;;;;;1.95;1.73;;;22.40;28.60;;;;;;5170259;27;47286;-23
2022/04/20 12:47:33;;;;;;;2.42;1.55;;;22.40;28.70;;;;;;5168351;27;48782;-23
2022/04/20 12:50:22;;;;;;;3.47;1.60;;;22.50;28.40;;;;;;5167108;27;47133;-23
2022/04/20 12:52:59;;;;;;;5.88;2.00;;;22.50;28.60;;;;;;5169302;27;46925;-23
2022/04/20 12:55:38;;;;;;;3.17;1.67;;;22.50;28.80;;;;;;5168730;27;47299;-14
2022/04/20 13:03:40;;;;;;;4.72;2.15;;;22.70;28.10;;;;;;5163587;27;46941;-14
2022/04/20 13:06:10;;;;;;;2.15;2.00;;;22.80;28.70;;;;;;5168658;27;47144;-25
2022/04/20 13:08:37;;;;;;;3.42;1.63;;;22.80;28.50;;;;;;5166337;27;48477;-16
2022/04/20 13:11:05;;;;;;;5.80;1.60;;;23.00;28.10;;;;;;5168079;27;46911;-23
2022/04/20 13:13:32;;;;;;;3.38;1.73;;;23.00;28.20;;;;;;5168283;27;47049;-13
2022/04/20 13:15:59;;;;;;;1.75;1.65;;;23.10;28.20;;;;;;5168081;27;47183;-22
2022/04/20 13:18:25;;;;;;;3.88;1.55;;;23.20;27.90;;;;;;5167838;27;46889;-14
2022/04/20 13:20:52;;;;;;;3.78;1.77;;;23.20;28.00;;;;;;5165110;27;46849;-13
2022/04/20 13:23:19;;;;;;;2.10;1.52;;;23.30;27.60;;;;;;5168079;27;46877;-21
2022/04/20 13:28:31;;;;;;;1.67;1.52;;;23.40;26.70;;;;;;5164592;27;46909;-14
2022/04/20 13:30:58;;;;;;;2.50;1.30;;;23.40;27.30;;;;;;5166264;27;47428;-14
2022/04/20 13:33:25;;;;;;;1.50;1.40;;;23.50;27.80;;;;;;5166457;27;46972;-14